KSHV/SHV METAR and TAF weather

Enter ICAO airport designator
Station Type Date Time Source
KSHV METAR 2022/12/04 04:56 UTC NOAA

KSHV 040456Z 06010KT 10SM OVC040 13/03 A3035 RMK SLPNO


Station Type Date Time Source
KSHV Decoded METAR 2022/12/04 04:56 UTC NOAA

SHREVEPORT REGIONAL AIRPORT, LA, United States (KSHV) 32-27N 93-50W 80M
Dec 03, 2022 - 11:56 PM EST / 2022.12.04 0456 UTC
Wind: from the ENE (060 degrees) at 12 MPH (10 KT):0
Visibility: 10 mile(s):0
Sky conditions: overcast
Temperature: 55 F (13 C)
Dew Point: 37 F (3 C)
Relative Humidity: 50%
Pressure (altimeter): 30.35 in. Hg (1027 hPa)
ob: KSHV 040456Z 06010KT 10SM OVC040 13/03 A3035 RMK SLPNO
cycle: 5

Station Type Date Time Source
KSHV TAF 2022/12/03 18:57 UTC NOAA

TAF KSHV 031757Z 0318/0418 34010KT P6SM OVC015
FM032300 01008KT P6SM OVC025
FM040300 04005KT P6SM OVC030
FM040900 VRB04KT P6SM OVC020
FM041500 08006KT P6SM OVC020

Example: see airport list